Time;durP1;ratioP1;P1;durP2;ratioP2;P2;SDS_P1;SDS_P2;PMS_P1;PMS_P2;Temp;Humidity;BMP_temperature;BMP_pressure;BME280_temperature;BME280_humidity;BME280_pressure;Samples;Min_cycle;Max_cycle;Signal;HPM_P1;HPM_P2
2023/09/15 00:01:39;;;;;;;;;;;;;;;26.49;49.07;100215.47;4261946;33;33279;-76
2023/09/15 00:04:08;;;;;;;;;;;;;;;27.14;46.90;100219.87;4276483;33;34279;-75
2023/09/15 00:06:36;;;;;;;;;;;;;;;27.13;46.42;100219.87;4281535;33;34909;-77
2023/09/15 00:09:04;;;;;;;;;;;;;;;27.30;45.39;100222.28;4260491;33;33726;-73
2023/09/15 00:11:41;;;;;;;;;;;;;;;27.31;44.87;100222.25;4260994;33;33362;-75
2023/09/15 00:14:09;;;;;;;;;;;;;;;26.67;45.90;100218.81;4272116;33;34052;-75
2023/09/15 00:16:38;;;;;;;;;;;;;;;26.84;45.28;100227.41;4275881;33;32910;-77
2023/09/15 00:19:06;;;;;;;;;;;;;;;27.03;44.38;100222.69;4276444;33;35027;-77
2023/09/15 00:21:33;;;;;;;;;;;;;;;26.82;44.80;100223.03;4276475;33;33559;-77
2023/09/15 00:24:01;;;;;;;;;;;;;;;26.59;45.81;100220.72;4273720;33;35052;-77
2023/09/15 00:26:29;;;;;;;;;;;;;;;26.30;46.72;100235.22;4271252;33;33886;-75
2023/09/15 00:28:57;;;;;;;;;;;;;;;26.75;45.74;100227.53;4275110;33;33978;-76
2023/09/15 00:31:25;;;;;;;;;;;;;;;26.49;45.99;100236.72;4274753;33;34094;-77
2023/09/15 00:33:52;;;;;;;;;;;;;;;26.48;46.03;100240.31;4265300;33;34202;-76
2023/09/15 00:36:19;;;;;;;;;;;;;;;26.37;46.63;100241.34;4276178;33;34538;-77
2023/09/15 00:38:47;;;;;;;;;;;;;;;25.77;48.41;100249.94;4271877;33;33986;-79
2023/09/15 00:41:14;;;;;;;;;;;;;;;25.84;48.05;100244.56;4274831;33;34203;-75
2023/09/15 00:43:42;;;;;;;;;;;;;;;26.27;47.17;100240.59;4277449;33;35085;-74
2023/09/15 00:46:09;;;;;;;;;;;;;;;25.66;48.93;100252.72;4276634;33;33705;-72
2023/09/15 00:48:40;;;;;;;;;;;;;;;25.56;49.08;100251.06;4263584;33;34953;-76
2023/09/15 00:51:07;;;;;;;;;;;;;;;25.58;48.98;100252.81;4257496;33;32912;-76
2023/09/15 00:53:35;;;;;;;;;;;;;;;25.53;49.33;100257.25;4261044;33;34006;-76
2023/09/15 00:56:05;;;;;;;;;;;;;;;25.36;49.95;100253.87;4276487;33;34752;-76
2023/09/15 00:58:34;;;;;;;;;;;;;;;25.22;50.04;100251.31;4273555;33;33967;-77
2023/09/15 01:01:04;;;;;;;;;;;;;;;25.55;49.26;100250.16;4268534;33;34195;-75
2023/09/15 01:03:33;;;;;;;;;;;;;;;25.74;48.68;100252.66;4277956;33;33811;-74
2023/09/15 01:06:01;;;;;;;;;;;;;;;25.63;49.19;100253.66;4266488;33;35090;-75
2023/09/15 01:08:29;;;;;;;;;;;;;;;24.60;51.63;100253.50;4275083;33;34173;-77
2023/09/15 01:11:01;;;;;;;;;;;;;;;24.69;51.80;100250.81;4274569;33;33667;-75
2023/09/15 01:13:28;;;;;;;;;;;;;;;25.27;49.96;100250.44;4274710;33;34287;-76
2023/09/15 01:15:59;;;;;;;;;;;;;;;25.39;49.98;100249.44;4277515;33;35037;-77
2023/09/15 01:18:31;;;;;;;;;;;;;;;26.17;47.70;100239.78;4276628;33;34215;-77
2023/09/15 01:21:18;;;;;;;;;;;;;;;25.93;48.34;100245.41;4269449;33;32948;-75
2023/09/15 01:23:52;;;;;;;;;;;;;;;26.16;47.90;100253.13;4277486;33;34769;-74
2023/09/15 01:26:29;;;;;;;;;;;;;;;25.99;48.08;100251.53;4275295;33;35143;-72
2023/09/15 01:29:15;;;;;;;;;;;;;;;25.95;48.01;100247.16;4268267;33;34256;-78
2023/09/15 01:31:43;;;;;;;;;;;;;;;26.41;46.57;100243.06;4278364;33;33458;-76
2023/09/15 01:34:13;;;;;;;;;;;;;;;25.25;49.53;100246.91;4272258;33;34077;-78
2023/09/15 01:36:41;;;;;;;;;;;;;;;26.01;46.94;100248.84;4270900;33;34109;-75
2023/09/15 01:39:08;;;;;;;;;;;;;;;25.69;47.95;100248.28;4275430;33;34961;-76
2023/09/15 01:41:36;;;;;;;;;;;;;;;26.18;46.25;100251.31;4263139;33;33028;-74
2023/09/15 01:44:04;;;;;;;;;;;;;;;25.84;47.65;100251.66;4275753;33;34118;-74
2023/09/15 01:46:31;;;;;;;;;;;;;;;25.23;49.28;100248.69;4276448;33;34827;-76
2023/09/15 01:48:59;;;;;;;;;;;;;;;25.54;48.57;100248.44;4275878;33;34849;-76
2023/09/15 01:51:27;;;;;;;;;;;;;;;25.31;48.91;100252.16;4274444;33;33325;-76
2023/09/15 01:53:54;;;;;;;;;;;;;;;25.76;47.44;100264.13;4252863;33;34243;-74
2023/09/15 01:56:26;;;;;;;;;;;;;;;25.85;46.87;100258.72;4275366;33;34285;-77
2023/09/15 01:58:53;;;;;;;;;;;;;;;25.76;47.21;100266.78;4267927;33;34477;-75
2023/09/15 02:01:21;;;;;;;;;;;;;;;26.15;46.48;100262.84;4275238;33;34066;-75
2023/09/15 02:03:50;;;;;;;;;;;;;;;26.51;45.51;100257.09;4275420;33;34206;-78
2023/09/15 02:06:17;;;;;;;;;;;;;;;26.49;45.59;100260.66;4276328;33;34740;-72
2023/09/15 02:08:45;;;;;;;;;;;;;;;25.91;46.94;100264.00;4276411;33;34358;-75
2023/09/15 02:11:13;;;;;;;;;;;;;;;24.49;51.22;100265.00;4273976;33;33742;-76
2023/09/15 02:13:42;;;;;;;;;;;;;;;25.34;49.16;100266.28;4277826;33;34110;-76
2023/09/15 02:16:11;;;;;;;;;;;;;;;25.15;49.59;100265.50;4276517;33;33216;-76
2023/09/15 02:18:40;;;;;;;;;;;;;;;25.37;48.63;100268.91;4270249;33;33896;-76
2023/09/15 02:21:07;;;;;;;;;;;;;;;25.05;49.59;100264.69;4252421;33;32338;-76
2023/09/15 02:23:35;;;;;;;;;;;;;;;26.02;46.67;100262.12;4278190;33;34089;-74
2023/09/15 02:26:04;;;;;;;;;;;;;;;26.41;45.78;100259.00;4278997;33;34022;-74
2023/09/15 02:28:32;;;;;;;;;;;;;;;26.49;45.37;100260.66;4275528;33;33888;-76
2023/09/15 02:31:01;;;;;;;;;;;;;;;25.54;47.70;100267.00;4270329;33;33292;-78
2023/09/15 02:33:28;;;;;;;;;;;;;;;25.77;47.12;100265.88;4263792;33;34305;-74
2023/09/15 02:35:56;;;;;;;;;;;;;;;26.15;46.32;100268.16;4277085;33;34049;-76
2023/09/15 02:38:23;;;;;;;;;;;;;;;24.97;49.40;100262.09;4275694;33;34952;-74
2023/09/15 02:40:51;;;;;;;;;;;;;;;25.29;48.27;100264.56;4275009;33;33307;-77
2023/09/15 02:43:18;;;;;;;;;;;;;;;25.17;49.08;100259.31;4275046;33;35021;-77
2023/09/15 02:45:46;;;;;;;;;;;;;;;24.69;49.95;100264.06;4264111;33;33479;-73
2023/09/15 02:48:14;;;;;;;;;;;;;;;25.61;48.00;100260.75;4275799;33;34302;-75
2023/09/15 02:50:42;;;;;;;;;;;;;;;25.59;47.72;100254.53;4276662;33;34334;-72
2023/09/15 02:53:10;;;;;;;;;;;;;;;25.33;48.42;100249.50;4277203;33;34825;-75
2023/09/15 02:55:38;;;;;;;;;;;;;;;25.13;48.69;100257.59;4277260;33;34731;-74
2023/09/15 02:58:05;;;;;;;;;;;;;;;25.20;48.61;100259.28;4275122;33;34118;-74
2023/09/15 03:00:33;;;;;;;;;;;;;;;26.43;45.14;100247.44;4275211;33;33409;-77
2023/09/15 03:03:00;;;;;;;;;;;;;;;26.09;45.96;100258.47;4273208;33;34198;-79
2023/09/15 03:05:28;;;;;;;;;;;;;;;26.08;45.84;100253.22;4274593;33;34336;-75
2023/09/15 03:07:55;;;;;;;;;;;;;;;25.24;48.07;100260.16;4277514;33;34059;-78
2023/09/15 03:10:23;;;;;;;;;;;;;;;24.69;49.34;100266.72;4275236;33;34198;-78
2023/09/15 03:12:51;;;;;;;;;;;;;;;25.00;48.86;100262.09;4275987;33;34219;-75
2023/09/15 03:15:19;;;;;;;;;;;;;;;24.60;50.34;100258.81;4286631;33;33939;-77
2023/09/15 03:17:46;;;;;;;;;;;;;;;24.87;49.78;100255.97;4271669;33;34357;-77
2023/09/15 03:20:16;;;;;;;;;;;;;;;24.97;48.95;100258.56;4267993;33;33208;-74
2023/09/15 03:22:43;;;;;;;;;;;;;;;24.95;49.44;100263.00;4281296;33;35076;-74
2023/09/15 03:25:11;;;;;;;;;;;;;;;24.79;49.72;100263.09;4285677;33;34616;-76
2023/09/15 03:27:39;;;;;;;;;;;;;;;25.05;48.84;100264.69;4277267;33;33877;-77
2023/09/15 03:30:06;;;;;;;;;;;;;;;25.33;47.48;100254.81;4285218;33;33221;-77
2023/09/15 03:32:34;;;;;;;;;;;;;;;25.67;46.96;100263.34;4281384;33;34299;-73
2023/09/15 03:35:02;;;;;;;;;;;;;;;25.63;47.39;100261.59;4282171;33;34136;-75
2023/09/15 03:37:30;;;;;;;;;;;;;;;25.87;46.65;100259.59;4277354;33;34158;-77
2023/09/15 03:39:58;;;;;;;;;;;;;;;25.21;48.53;100265.47;4285656;33;33929;-79
2023/09/15 03:42:27;;;;;;;;;;;;;;;24.68;49.80;100270.22;4281321;33;33557;-76
2023/09/15 03:44:55;;;;;;;;;;;;;;;25.89;46.46;100271.94;4280018;33;34077;-78
2023/09/15 03:47:22;;;;;;;;;;;;;;;26.47;44.58;100270.41;4274834;33;34040;-75
2023/09/15 03:49:49;;;;;;;;;;;;;;;26.51;44.55;100270.38;4265701;33;34053;-75
2023/09/15 03:52:17;;;;;;;;;;;;;;;25.84;46.37;100267.56;4283515;33;34294;-77
2023/09/15 03:54:44;;;;;;;;;;;;;;;25.29;48.04;100267.19;4282581;33;33930;-77
2023/09/15 03:57:12;;;;;;;;;;;;;;;24.49;49.94;100270.31;4277978;33;34840;-77
2023/09/15 03:59:39;;;;;;;;;;;;;;;23.59;52.85;100274.03;4278179;33;33546;-75
2023/09/15 04:02:07;;;;;;;;;;;;;;;24.52;50.04;100274.72;4270980;33;34972;-75
2023/09/15 04:04:34;;;;;;;;;;;;;;;24.72;49.09;100278.16;4281784;33;34029;-76
2023/09/15 04:07:05;;;;;;;;;;;;;;;24.02;51.20;100279.28;4278556;33;34859;-76
2023/09/15 04:09:34;;;;;;;;;;;;;;;23.47;53.07;100277.59;4282728;33;32887;-80
2023/09/15 04:12:03;;;;;;;;;;;;;;;24.73;49.82;100284.34;4284875;33;33896;-74
2023/09/15 04:14:34;;;;;;;;;;;;;;;24.93;48.80;100285.09;4279867;33;33999;-79
2023/09/15 04:17:04;;;;;;;;;;;;;;;24.53;50.18;100287.97;4289099;33;34193;-75
2023/09/15 04:19:32;;;;;;;;;;;;;;;24.23;51.17;100288.94;4278762;33;33317;-75
2023/09/15 04:22:00;;;;;;;;;;;;;;;24.31;51.20;100294.19;4282479;33;35007;-78
2023/09/15 04:24:27;;;;;;;;;;;;;;;24.96;49.38;100286.84;4287660;33;33873;-73
2023/09/15 04:26:54;;;;;;;;;;;;;;;25.23;48.82;100280.50;4283997;33;34247;-74
2023/09/15 04:29:22;;;;;;;;;;;;;;;24.60;50.33;100288.81;4290570;33;34016;-75
2023/09/15 04:31:49;;;;;;;;;;;;;;;24.83;49.71;100286.03;4279143;33;33811;-77
2023/09/15 04:34:18;;;;;;;;;;;;;;;24.51;50.23;100287.09;4286976;33;33690;-76
2023/09/15 04:36:45;;;;;;;;;;;;;;;24.54;50.31;100291.50;4279543;33;34287;-72
2023/09/15 04:39:13;;;;;;;;;;;;;;;24.14;51.77;100295.16;4273948;33;33113;-73
2023/09/15 04:41:43;;;;;;;;;;;;;;;24.39;51.22;100297.69;4281525;33;34654;-74
2023/09/15 04:44:10;;;;;;;;;;;;;;;23.26;54.09;100302.25;4293222;33;34097;-76
2023/09/15 04:46:38;;;;;;;;;;;;;;;23.85;52.40;100302.25;4278303;33;34915;-75
2023/09/15 04:49:06;;;;;;;;;;;;;;;24.32;51.09;100306.56;4278660;33;34059;-74
2023/09/15 04:51:34;;;;;;;;;;;;;;;24.72;50.02;100303.75;4280825;33;34729;-75
2023/09/15 04:54:01;;;;;;;;;;;;;;;23.97;51.92;100301.34;4274159;33;34179;-73
2023/09/15 04:56:29;;;;;;;;;;;;;;;24.13;51.50;100303.97;4286310;33;34329;-77
2023/09/15 04:58:57;;;;;;;;;;;;;;;24.90;48.74;100287.78;4278127;33;34188;-78
2023/09/15 05:01:24;;;;;;;;;;;;;;;24.99;48.22;100291.25;4279785;33;33944;-76
2023/09/15 05:03:52;;;;;;;;;;;;;;;25.31;47.27;100299.88;4275279;33;33305;-75
2023/09/15 05:06:19;;;;;;;;;;;;;;;25.41;46.78;100299.81;4277774;33;33545;-75
2023/09/15 05:08:47;;;;;;;;;;;;;;;25.59;46.29;100299.66;4278100;33;33916;-75
2023/09/15 05:11:15;;;;;;;;;;;;;;;25.59;46.28;100299.66;4289265;33;33955;-73
2023/09/15 05:13:42;;;;;;;;;;;;;;;25.43;47.33;100298.03;4288529;33;33949;-77
2023/09/15 05:16:10;;;;;;;;;;;;;;;25.67;46.47;100303.12;4278701;33;34651;-76
2023/09/15 05:18:38;;;;;;;;;;;;;;;25.63;46.30;100301.41;4276989;33;33415;-73
2023/09/15 05:21:06;;;;;;;;;;;;;;;25.21;47.80;100302.59;4281313;33;34057;-75
2023/09/15 05:23:34;;;;;;;;;;;;;;;25.56;47.05;100315.59;4275655;33;33687;-72
2023/09/15 05:26:02;;;;;;;;;;;;;;;25.29;48.12;100308.75;4274564;33;34323;-74
2023/09/15 05:28:29;;;;;;;;;;;;;;;25.01;48.80;100300.06;4274663;33;33127;-77
2023/09/15 05:30:57;;;;;;;;;;;;;;;25.43;47.69;100298.03;4274900;33;33990;-75
2023/09/15 05:33:26;;;;;;;;;;;;;;;24.84;49.50;100301.06;4283275;33;34007;-76
2023/09/15 05:35:54;;;;;;;;;;;;;;;25.41;47.87;100299.81;4276799;33;34117;-77
2023/09/15 05:38:25;;;;;;;;;;;;;;;25.51;47.75;100306.78;4263285;33;33348;-72
2023/09/15 05:40:52;;;;;;;;;;;;;;;25.16;48.81;100310.56;4261234;33;33740;-78
2023/09/15 05:43:23;;;;;;;;;;;;;;;25.85;47.20;100309.16;4275541;33;34631;-77
2023/09/15 05:45:50;;;;;;;;;;;;;;;25.83;47.32;100310.94;4277494;33;34304;-73
2023/09/15 05:48:22;;;;;;;;;;;;;;;25.97;46.96;100317.03;4282478;33;33079;-76
2023/09/15 05:50:50;;;;;;;;;;;;;;;25.76;47.32;100309.25;4272687;33;35054;-76
2023/09/15 05:53:20;;;;;;;;;;;;;;;25.41;48.51;100310.44;4277424;33;33928;-78
2023/09/15 05:55:48;;;;;;;;;;;;;;;25.55;48.28;100313.84;4277709;33;33140;-79
2023/09/15 05:58:15;;;;;;;;;;;;;;;25.15;49.27;100311.47;4274963;33;33872;-73
2023/09/15 06:00:43;;;;;;;;;;;;;;;25.43;48.53;100309.50;4276825;33;33953;-77
2023/09/15 06:03:10;;;;;;;;;;;;;;;25.64;48.12;100324.38;4277789;33;34861;-78
2023/09/15 06:05:37;;;;;;;;;;;;;;;26.08;47.26;100317.78;4263972;33;34045;-78
2023/09/15 06:08:06;;;;;;;;;;;;;;;26.97;44.88;100317.63;4277071;33;33445;-74
2023/09/15 06:10:39;;;;;;;;;;;;;;;27.11;44.34;100318.28;4278231;33;35110;-77
2023/09/15 06:13:07;;;;;;;;;;;;;;;26.72;45.22;100311.78;4272989;33;33822;-76
2023/09/15 06:15:35;;;;;;;;;;;;;;;25.98;46.50;100324.09;4287906;33;33679;-73
2023/09/15 06:18:02;;;;;;;;;;;;;;;26.32;46.09;100321.06;4266235;33;33928;-76
2023/09/15 06:20:33;;;;;;;;;;;;;;;26.95;44.20;100319.44;4282299;33;33962;-77
2023/09/15 06:23:01;;;;;;;;;;;;;;;26.24;45.90;100330.91;4283628;33;33706;-73
2023/09/15 06:25:30;;;;;;;;;;;;;;;25.97;46.66;100330.28;4277888;33;34071;-74
2023/09/15 06:27:59;;;;;;;;;;;;;;;25.76;47.09;100327.81;4270656;33;32831;-75
2023/09/15 06:30:48;;;;;;;;;;;;;;;25.51;47.74;100334.19;4272767;33;34258;-75
2023/09/15 06:33:16;;;;;;;;;;;;;;;25.83;47.28;100334.84;4276781;33;34358;-76
2023/09/15 06:35:44;;;;;;;;;;;;;;;26.06;46.68;100338.16;4286935;33;33892;-77
2023/09/15 06:38:12;;;;;;;;;;;;;;;26.42;45.88;100335.97;4278131;33;32956;-77
2023/09/15 06:40:39;;;;;;;;;;;;;;;26.62;45.29;100333.13;4266205;33;34125;-77
2023/09/15 06:43:07;;;;;;;;;;;;;;;26.02;46.91;100346.16;4278524;33;34248;-76
2023/09/15 06:45:35;;;;;;;;;;;;;;;26.00;47.30;100343.53;4285687;33;34566;-76
2023/09/15 06:48:02;;;;;;;;;;;;;;;26.30;46.67;100336.13;4264324;33;33260;-77
2023/09/15 06:50:30;;;;;;;;;;;;;;;26.58;45.97;100335.81;4268207;33;32679;-78
2023/09/15 06:52:57;;;;;;;;;;;;;;;26.43;46.21;100337.75;4289628;33;34619;-78
2023/09/15 06:55:25;;;;;;;;;;;;;;;26.55;46.10;100335.84;4276672;33;34412;-78
2023/09/15 06:57:52;;;;;;;;;;;;;;;27.06;44.34;100333.41;4283475;33;34025;-73
2023/09/15 07:00:20;;;;;;;;;;;;;;;27.14;43.72;100327.97;4277918;33;34275;-77
2023/09/15 07:02:47;;;;;;;;;;;;;;;26.97;44.44;100333.56;4289459;33;33596;-78
2023/09/15 07:05:15;;;;;;;;;;;;;;;27.15;44.05;100332.41;4280058;33;34776;-75
2023/09/15 07:07:42;;;;;;;;;;;;;;;26.88;44.77;100334.56;4276925;33;32731;-76
2023/09/15 07:10:10;;;;;;;;;;;;;;;27.02;44.29;100326.38;4275077;33;34047;-78
2023/09/15 07:12:37;;;;;;;;;;;;;;;27.32;43.39;100342.84;4277004;33;34138;-79
2023/09/15 07:15:05;;;;;;;;;;;;;;;27.18;43.92;100337.72;4263237;33;33760;-77
2023/09/15 07:17:33;;;;;;;;;;;;;;;27.07;44.22;100345.81;4277514;33;33704;-73
2023/09/15 07:20:00;;;;;;;;;;;;;;;27.29;43.67;100342.88;4275797;33;33992;-75
2023/09/15 07:22:28;;;;;;;;;;;;;;;27.59;42.99;100345.06;4279381;33;34392;-78
2023/09/15 07:24:55;;;;;;;;;;;;;;;26.99;44.61;100343.28;4273934;33;33917;-77
2023/09/15 07:27:23;;;;;;;;;;;;;;;27.83;42.79;100340.22;4282433;33;33098;-76
2023/09/15 07:29:50;;;;;;;;;;;;;;;27.91;42.58;100341.00;4273985;33;34824;-79
2023/09/15 07:32:18;;;;;;;;;;;;;;;27.58;42.87;100340.66;4277106;33;35020;-78
2023/09/15 07:34:45;;;;;;;;;;;;;;;28.08;41.99;100335.34;4274552;33;34240;-78
2023/09/15 07:37:13;;;;;;;;;;;;;;;28.32;41.25;100341.09;4276276;33;33403;-78
2023/09/15 07:39:40;;;;;;;;;;;;;;;27.40;43.47;100331.16;4274314;33;34966;-78
2023/09/15 07:42:08;;;;;;;;;;;;;;;28.13;42.11;100329.94;4271205;33;34158;-79
2023/09/15 07:44:40;;;;;;;;;;;;;;;28.17;42.06;100347.62;4275891;33;34396;-80
2023/09/15 07:47:12;;;;;;;;;;;;;;;27.98;42.40;100339.09;4271603;33;33275;-79
2023/09/15 07:49:40;;;;;;;;;;;;;;;28.22;42.16;100340.41;4275577;33;33937;-75
2023/09/15 07:52:07;;;;;;;;;;;;;;;28.87;40.56;100334.66;4287093;33;34905;-77
2023/09/15 07:54:35;;;;;;;;;;;;;;;29.00;39.65;100340.59;4281687;33;33288;-73
2023/09/15 07:57:03;;;;;;;;;;;;;;;29.10;39.64;100341.28;4276775;33;32658;-75
2023/09/15 07:59:31;;;;;;;;;;;;;;;29.64;38.36;100332.00;4275502;33;35005;-78
2023/09/15 08:01:58;;;;;;;;;;;;;;;29.64;38.34;100332.00;4263455;33;33498;-75
2023/09/15 08:04:26;;;;;;;;;;;;;;;30.30;36.45;100338.28;4267922;33;33619;-75
2023/09/15 08:06:55;;;;;;;;;;;;;;;30.02;36.93;100343.50;4266214;33;31661;-78
2023/09/15 08:09:23;;;;;;;;;;;;;;;30.32;36.18;100337.34;4262844;33;33467;-77
2023/09/15 08:11:50;;;;;;;;;;;;;;;30.38;34.51;100330.94;4272259;33;34195;-77
2023/09/15 08:14:17;;;;;;;;;;;;;;;30.87;33.24;100331.31;4281853;33;33548;-75
2023/09/15 08:16:45;;;;;;;;;;;;;;;31.12;33.28;100320.75;4263392;33;33817;-76
2023/09/15 08:19:12;;;;;;;;;;;;;;;31.43;32.87;100325.97;4277959;33;33674;-76
2023/09/15 08:21:40;;;;;;;;;;;;;;;31.96;32.01;100326.91;4283365;33;33888;-79
2023/09/15 08:24:07;;;;;;;;;;;;;;;32.27;31.61;100322.19;4284419;33;34252;-75
2023/09/15 08:26:34;;;;;;;;;;;;;;;32.41;30.75;100324.38;4280236;33;32947;-75
2023/09/15 08:29:13;;;;;;;;;;;;;;;32.07;31.19;100314.03;4281405;33;33824;-76
2023/09/15 08:31:41;;;;;;;;;;;;;;;32.58;31.18;100323.78;4276578;33;33645;-75
2023/09/15 08:34:08;;;;;;;;;;;;;;;32.83;30.69;100312.09;4279431;33;34317;-78
2023/09/15 08:36:36;;;;;;;;;;;;;;;33.08;29.92;100309.31;4281473;33;33600;-76
2023/09/15 08:39:04;;;;;;;;;;;;;;;32.82;30.24;100304.97;4283743;33;34391;-78
2023/09/15 08:41:34;;;;;;;;;;;;;;;33.31;29.61;100308.41;4262327;33;33620;-79
2023/09/15 08:44:04;;;;;;;3.12;1.50;;;;;;;33.49;29.61;100304.06;4264414;33;33448;-79
2023/09/15 08:46:32;;;;;;;2.85;1.65;;;;;;;33.62;29.11;100293.69;4281098;33;33220;-79
2023/09/15 08:49:01;;;;;;;8.30;1.80;;;;;;;33.61;29.46;100303.56;4261150;33;34440;-78
2023/09/15 08:51:29;;;;;;;3.33;1.52;;;;;;;33.88;29.09;100301.53;4282687;33;33895;-77
2023/09/15 08:53:57;;;;;;;3.50;1.85;;;;;;;34.52;28.17;100301.37;4258947;33;34115;-76
2023/09/15 08:56:25;;;;;;;5.68;1.77;;;;;;;34.60;28.49;100296.53;4271123;33;33774;-75
2023/09/15 08:58:52;;;;;;;;;;;;;;;34.52;28.73;100306.75;4259973;33;35212;-76
2023/09/15 09:01:20;;;;;;;;;;;;;;;34.47;27.97;100304.28;4278613;33;34022;-76
2023/09/15 09:03:47;;;;;;;;;;;;;;;34.75;27.92;100305.69;4270731;33;34478;-79
2023/09/15 09:06:15;;;;;;;;;;;;;;;34.73;27.58;100305.78;4281553;33;34284;-77
2023/09/15 09:08:46;;;;;;;;;;;;;;;35.14;27.30;100304.72;4265538;33;34779;-76
2023/09/15 09:11:14;;;;;;;;;;;;;;;35.27;27.26;100311.25;4275729;33;33969;-74
2023/09/15 09:13:42;;;;;;;;;;;;;;;35.12;26.88;100301.22;4278849;33;33919;-79
2023/09/15 09:16:13;;;;;;;3.83;1.70;;;;;;;34.58;27.35;100307.34;4275499;33;33177;-74
2023/09/15 09:18:41;;;;;;;4.82;1.77;;;;;;;34.40;28.04;100311.78;4262787;33;33803;-77
2023/09/15 09:21:08;;;;;;;;;;;;;;;35.09;26.95;100306.78;4281239;33;34544;-77
2023/09/15 09:23:36;;;;;;;4.25;1.90;;;;;;;34.97;26.72;100302.88;4277210;33;34486;-76
2023/09/15 09:26:14;;;;;;;3.37;1.90;;;;;;;35.21;25.75;100301.66;4261494;33;32858;-79
2023/09/15 09:28:43;;;;;;;4.32;2.00;;;;;;;35.14;26.63;100299.34;4260692;33;34333;-74
2023/09/15 09:31:11;;;;;;;4.82;1.52;;;;;;;35.16;26.81;100297.44;4274520;33;33689;-74
2023/09/15 09:33:39;;;;;;;3.37;1.70;;;;;;;35.40;26.51;100301.63;4279752;33;33967;-74
2023/09/15 09:36:14;;;;;;;4.82;1.70;;;;;;;35.51;24.71;100303.78;4261383;33;33733;-74
2023/09/15 09:38:48;;;;;;;2.15;1.40;;;;;;;35.63;25.70;100294.19;4272380;33;34550;-75
2023/09/15 09:41:25;;;;;;;3.10;1.80;;;;;;;35.67;25.78;100298.50;4248742;33;32734;-74
2023/09/15 09:44:01;;;;;;;2.58;1.50;;;;;;;36.01;25.07;100296.75;4275051;33;32297;-75
2023/09/15 09:46:32;;;;;;;3.00;1.67;;;;;;;35.80;24.72;100304.13;4264031;33;32906;-75
2023/09/15 09:49:00;;;;;;;2.42;1.50;;;;;;;35.74;25.20;100299.06;4263530;33;33463;-75
2023/09/15 09:51:28;;;;;;;3.22;1.52;;;;;;;36.36;24.04;100302.09;4274692;33;34565;-75
2023/09/15 09:53:56;;;;;;;3.00;1.77;;;;;;;35.98;24.34;100294.19;4273253;33;33698;-75
2023/09/15 09:56:24;;;;;;;3.78;1.98;;;;;;;36.47;24.08;100299.69;4273248;33;33512;-75
2023/09/15 09:58:54;;;;;;;3.28;1.90;;;;;;;36.50;23.20;100304.87;4270523;33;34570;-75
2023/09/15 10:01:23;;;;;;;4.28;1.75;;;;;;;36.22;23.53;100301.00;4265166;33;33299;-75
2023/09/15 10:03:50;;;;;;;4.03;1.70;;;;;;;35.59;23.45;100298.88;4269738;33;34640;-75
2023/09/15 10:06:19;;;;;;;4.15;1.62;;;;;;;35.72;24.87;100300.97;4268955;33;33880;-75
2023/09/15 10:08:47;;;;;;;4.87;1.67;;;;;;;36.19;23.89;100301.16;4261411;33;33987;-74
2023/09/15 10:11:16;;;;;;;2.83;1.35;;;;;;;35.74;24.11;100294.53;4266983;33;33828;-75
2023/09/15 10:13:43;;;;;;;;;;;;;;;36.03;24.03;100295.69;4274969;33;33470;-78
2023/09/15 10:16:11;;;;;;;4.20;1.95;;;;;;;36.21;24.04;100293.84;4268837;33;34249;-79
2023/09/15 10:18:39;;;;;;;;;;;;;;;35.99;23.76;100293.25;4272704;33;33614;-80
2023/09/15 10:21:06;;;;;;;3.58;1.60;;;;;;;36.07;24.00;100296.41;4275606;33;33868;-74
2023/09/15 10:23:34;;;;;;;3.22;1.67;;;;;;;36.37;22.75;100284.94;4254196;33;190936;-74
2023/09/15 10:26:04;;;;;;;;;;;;;;;36.88;22.89;100292.94;4273941;33;32895;-77
2023/09/15 10:28:32;;;;;;;;;;;;;;;36.86;22.37;100295.72;4276181;33;34364;-73
2023/09/15 10:31:04;;;;;;;;;;;;;;;36.60;22.82;100289.91;4271658;33;33893;-74
2023/09/15 10:33:33;;;;;;;;;;;;;;;36.70;23.40;100294.84;4260169;33;34942;-74
2023/09/15 10:36:04;;;;;;;;;;;;;;;36.66;23.32;100285.19;4261837;33;33423;-74
2023/09/15 10:38:32;;;;;;;;;;;;;;;36.21;24.30;100283.06;4259764;33;34088;-74
2023/09/15 10:41:03;;;;;;;;;;;;;;;35.94;23.85;100284.53;4276232;33;34459;-74
2023/09/15 10:43:31;;;;;;;;;;;;;;;35.95;23.63;100289.84;4263426;33;34686;-76
2023/09/15 10:46:02;;;;;;;;;;;;;;;35.71;24.88;100277.66;4276749;33;33003;-80
2023/09/15 10:48:37;;;;;;;;;;;;;;;35.86;24.85;100278.69;4271811;33;34631;-80
2023/09/15 10:51:05;;;;;;;;;;;;;;;35.98;23.92;100286.09;4270885;33;34191;-75
2023/09/15 10:53:46;;;;;;;;;;;;;;;35.92;24.83;100271.13;4276047;33;34119;-79
2023/09/15 10:56:16;;;;;;;;;;;;;;;35.46;25.02;100278.03;4276988;33;33436;-75
2023/09/15 10:58:46;;;;;;;;;;;;;;;36.11;24.33;100276.41;4275174;33;34172;-76
2023/09/15 11:01:15;;;;;;;3.28;1.77;;;;;;;36.28;24.30;100280.03;4273747;33;34014;-80
2023/09/15 11:03:43;;;;;;;;;;;;;;;36.47;23.45;100277.19;4277956;33;34203;-74
2023/09/15 11:06:15;;;;;;;;;;;;;;;36.59;23.83;100282.78;4279497;33;33572;-77
2023/09/15 11:08:42;;;;;;;;;;;;;;;36.97;22.94;100276.19;4273955;33;34613;-80
2023/09/15 11:11:10;;;;;;;3.22;2.00;;;;;;;37.03;22.43;100274.97;4276408;33;34598;-79
2023/09/15 11:13:39;;;;;;;4.18;1.67;;;;;;;36.92;23.54;100268.38;4263021;33;33537;-74
2023/09/15 11:16:08;;;;;;;;;;;;;;;37.07;23.82;100266.63;4271512;33;34269;-77
2023/09/15 11:18:37;;;;;;;3.05;1.62;;;;;;;37.11;23.60;100272.72;4254791;33;34354;-73
2023/09/15 11:21:06;;;;;;;3.00;1.62;;;;;;;36.59;24.17;100266.59;4270788;33;34048;-77
2023/09/15 11:23:34;;;;;;;2.37;1.60;;;;;;;36.40;23.94;100265.88;4272522;33;34045;-75
2023/09/15 11:26:06;;;;;;;3.85;1.40;;;;;;;36.65;24.33;100270.81;4276600;33;33244;-78
2023/09/15 11:28:54;;;;;;;3.00;1.50;;;;;;;36.93;23.54;100264.69;4265625;33;33710;-78
2023/09/15 11:31:22;;;;;;;2.55;1.45;;;;;;;37.16;22.81;100276.03;4272491;33;33752;-80
2023/09/15 11:33:52;;;;;;;2.40;1.52;;;;;;;36.99;23.38;100264.37;4271647;33;34064;-80
2023/09/15 11:36:21;;;;;;;4.97;1.67;;;;;;;36.57;23.60;100262.25;4275160;33;32711;-75
2023/09/15 11:38:48;;;;;;;5.05;1.40;;;;;;;36.86;23.50;100263.31;4260124;33;33805;-78
2023/09/15 11:41:17;;;;;;;2.85;1.42;;;;;;;36.75;23.35;100250.44;4259345;33;33669;-76
2023/09/15 11:43:45;;;;;;;2.47;1.48;;;;;;;36.61;23.14;100247.63;4278554;33;33859;-75
2023/09/15 11:46:13;;;;;;;;;;;;;;;36.92;22.92;100246.78;4255292;33;33483;-74
2023/09/15 11:48:44;;;;;;;3.25;1.80;;;;;;;37.29;22.51;100250.03;4273920;33;34088;-78
2023/09/15 11:51:13;;;;;;;2.72;1.52;;;;;;;37.32;22.45;100244.47;4276468;33;34745;-75
2023/09/15 11:53:41;;;;;;;;;;;;;;;36.89;23.27;100236.13;4278114;33;34413;-78
2023/09/15 11:56:09;;;;;;;2.25;1.25;;;;;;;36.98;22.62;100240.16;4259387;33;33432;-76
2023/09/15 11:58:36;;;;;;;;;;;;;;;37.51;23.02;100241.50;4259018;33;33703;-73
2023/09/15 12:01:04;;;;;;;;;;;;;;;37.17;22.68;100242.66;4261101;33;34006;-76
2023/09/15 12:03:32;;;;;;;;;;;;;;;36.88;23.15;100239.81;4277075;33;34351;-77
2023/09/15 12:06:01;;;;;;;3.87;1.60;;;;;;;37.34;22.78;100236.25;4276136;33;33011;-78
2023/09/15 12:08:29;;;;;;;2.65;1.40;;;;;;;37.54;22.08;100233.22;4275257;33;34153;-75
2023/09/15 12:10:57;;;;;;;3.83;1.90;;;;;;;36.77;23.03;100231.47;4275749;33;33713;-79
2023/09/15 12:13:39;;;;;;;3.28;1.50;;;;;;;37.17;23.17;100235.44;4272878;33;33911;-72
2023/09/15 12:16:07;;;;;;;;;;;;;;;36.94;22.72;100236.75;4273819;33;32059;-73
2023/09/15 12:18:35;;;;;;;;;;;;;;;36.76;23.10;100235.09;4277008;33;34961;-71
2023/09/15 12:21:09;;;;;;;;;;;;;;;36.69;22.99;100234.59;4277697;33;34979;-73
2023/09/15 12:23:37;;;;;;;;;;;;;;;36.57;22.90;100233.44;4277923;33;33683;-72
2023/09/15 12:26:04;;;;;;;;;;;;;;;36.21;23.26;100221.03;4284235;33;33368;-73
2023/09/15 12:28:32;;;;;;;;;;;;;;;36.10;23.42;100220.72;4281064;33;34277;-71
2023/09/15 12:31:00;;;;;;;;;;;;;;;36.02;23.39;100218.44;4271742;33;34814;-74